Time;durP1;ratioP1;P1;durP2;ratioP2;P2;SDS_P1;SDS_P2;PMS_P1;PMS_P2;Temp;Humidity;BMP_temperature;BMP_pressure;BME280_temperature;BME280_humidity;BME280_pressure;Samples;Min_cycle;Max_cycle;Signal;HPM_P1;HPM_P2
2021/07/15 00:00:32;;;;;;;17.63;11.52;;;;;;;19.57;90.22;101252.97;5069128;28;20339;-72
2021/07/15 00:03:04;;;;;;;27.67;11.45;;;;;;;19.52;89.93;101185.06;5070112;28;20037;-72
2021/07/15 00:05:30;;;;;;;18.38;11.57;;;;;;;19.50;90.12;101169.06;5068590;28;20110;-72
2021/07/15 00:07:55;;;;;;;;;;;;;;;19.51;90.04;101181.53;5069219;28;20028;-72
2021/07/15 00:10:23;;;;;;;;;;;;;;;19.48;89.91;101184.69;5070398;28;20264;-72
2021/07/15 00:12:50;;;;;;;18.20;11.55;;;;;;;19.38;90.10;101166.13;5068844;28;20345;-72
2021/07/15 00:15:19;;;;;;;21.52;11.57;;;;;;;19.34;89.72;101178.44;5052181;28;20422;-72
2021/07/15 00:17:45;;;;;;;18.25;10.68;;;;;;;19.35;89.97;101174.69;5068557;28;20048;-72
2021/07/15 00:20:14;;;;;;;19.88;11.88;;;;;;;19.27;90.45;101962.69;5068872;28;20036;-72
2021/07/15 00:26:27;;;;;;;17.65;10.93;;;;;;;19.25;90.05;101817.72;5069111;28;20062;-72
2021/07/15 00:28:52;;;;;;;16.83;10.70;;;;;;;19.22;90.13;101837.88;5068646;28;20424;-72
2021/07/15 00:31:17;;;;;;;20.03;9.57;;;;;;;19.16;90.41;101723.09;5068506;28;20161;-72
2021/07/15 00:33:45;;;;;;;19.33;10.40;;;;;;;19.10;93.70;101671.63;5051603;28;20071;-72
2021/07/15 00:36:11;;;;;;;17.70;10.10;;;;;;;19.01;91.24;101694.44;5068105;28;20040;-72
2021/07/15 00:38:37;;;;;;;15.70;11.60;;;;;;;18.97;91.48;101623.66;5068228;28;20024;-72
2021/07/15 00:41:02;;;;;;;19.17;10.90;;;;;;;19.02;91.77;101614.94;5069454;28;20039;-72
2021/07/15 00:43:28;;;;;;;18.08;11.25;;;;;;;18.90;91.61;101620.91;5069340;28;20302;-72
2021/07/15 00:45:53;;;;;;;22.90;10.70;;;;;;;18.81;92.29;101638.31;5069046;28;20446;-72
2021/07/15 00:48:19;;;;;;;18.33;10.30;;;;;;;18.89;92.21;101688.72;5068136;28;20037;-72
2021/07/15 00:50:44;;;;;;;16.83;9.93;;;;;;;18.90;92.08;101717.47;5068537;28;20123;-72
2021/07/15 00:53:10;;;;;;;17.87;11.00;;;;;;;18.94;91.96;101645.66;5068055;28;20032;-72
2021/07/15 00:55:44;;;;;;;18.98;10.13;;;;;;;18.97;91.76;101730.00;5068184;28;20064;-72
2021/07/15 01:09:32;;;;;;;27.95;10.77;;;;;;;18.95;92.26;101877.38;5069448;28;20756;-71
2021/07/15 01:12:16;;;;;;;22.60;10.77;;;;;;;18.97;91.99;101822.03;5068953;28;20629;-71
2021/07/15 01:15:02;;;;;;;20.75;11.00;;;;;;;18.96;91.95;101827.63;5068107;28;20048;-72
2021/07/15 01:17:33;;;;;;;19.65;10.80;;;;;;;18.90;92.46;101875.22;5050955;28;20037;-72
2021/07/15 01:20:12;;;;;;;16.40;9.95;;;;;;;19.00;92.23;101985.88;5069109;28;20630;-72
2021/07/15 01:23:03;;;;;;;18.05;10.02;;;;;;;19.05;91.72;101996.13;5068004;28;20434;-72
2021/07/15 01:25:58;;;;;;;18.48;9.93;;;;;;;19.05;91.71;101936.59;5066593;28;20105;-72
2021/07/15 01:29:01;;;;;;;16.02;9.32;;;;;;;19.10;92.00;102027.00;5068795;28;20524;-72
2021/07/15 01:31:28;;;;;;;16.10;9.93;;;;;;;19.16;92.13;101768.28;5068014;28;20040;-72
2021/07/15 01:33:53;;;;;;;;;;;;;;;19.24;91.58;101897.25;5068279;28;20032;-72
2021/07/15 01:36:22;;;;;;;15.93;9.98;;;;;;;19.19;91.34;101847.22;5068435;28;19928;-72
2021/07/15 01:38:58;;;;;;;15.27;9.07;;;;;;;19.23;91.59;101984.91;5067778;28;20104;-72
2021/07/15 01:41:29;;;;;;;13.40;9.37;;;;;;;19.26;91.88;101955.59;5067996;28;20047;-72
2021/07/15 01:44:02;;;;;;;16.77;9.93;;;;;;;19.34;91.99;101954.66;5051046;28;20063;-72
2021/07/15 01:46:28;;;;;;;18.25;11.23;;;;;;;19.28;91.71;101898.53;5068414;28;20051;-72
2021/07/15 01:48:53;;;;;;;17.13;12.32;;;;;;;19.26;91.43;101709.22;5067731;28;20765;-72
2021/07/15 01:51:19;;;;;;;17.13;9.73;;;;;;;19.24;91.88;101806.03;5068779;28;20424;-72
2021/07/15 01:53:46;;;;;;;18.58;12.80;;;;;;;19.30;91.83;101788.19;5068716;28;20115;-72
2021/07/15 01:56:12;;;;;;;19.23;11.07;;;;;;;19.35;91.70;101783.03;5067359;28;20141;-72
2021/07/15 01:58:38;;;;;;;22.38;11.23;;;;;;;19.36;91.76;101861.38;5051096;28;20070;-72
2021/07/15 02:01:06;;;;;;;15.82;11.05;;;;;;;19.37;91.67;101884.69;5067605;28;20481;-72
2021/07/15 02:03:35;;;;;;;20.98;11.43;;;;;;;19.38;91.60;101920.72;5067309;28;20044;-72
2021/07/15 02:06:01;;;;;;;22.75;11.05;;;;;;;19.34;91.50;101849.06;5068599;28;20024;-72
2021/07/15 02:08:29;;;;;;;14.85;10.27;;;;;;;19.30;92.10;101866.72;5072530;28;20117;-72
2021/07/15 02:10:54;;;;;;;14.68;10.15;;;;;;;19.27;92.03;101957.28;5071689;28;20051;-72
2021/07/15 02:13:21;;;;;;;17.42;11.20;;;;;;;19.24;92.11;101881.84;5071235;28;20020;-72
2021/07/15 02:15:48;;;;;;;20.58;11.57;;;;;;;19.26;92.30;101944.75;5054257;28;20040;-72
2021/07/15 02:18:17;;;;;;;21.50;12.00;;;;;;;19.34;91.80;101987.97;5072273;28;20032;-72
2021/07/15 02:20:44;;;;;;;20.92;10.20;;;;;;;19.35;91.71;102068.16;5072161;28;20030;-72
2021/07/15 02:23:10;;;;;;;17.52;12.02;;;;;;;19.39;91.56;101982.81;5054502;28;20366;-72
2021/07/15 02:25:37;;;;;;;23.27;11.93;;;;;;;19.44;91.45;101987.66;5070924;28;20032;-72
2021/07/15 02:28:06;;;;;;;20.92;12.55;;;;;;;19.34;91.90;101979.03;5071051;28;20039;-72
2021/07/15 02:30:31;;;;;;;21.00;12.52;;;;;;;19.28;92.18;101999.56;5072040;28;20079;-72
2021/07/15 02:33:06;;;;;;;26.53;12.93;;;;;;;19.25;92.30;101969.31;5071930;28;20123;-72
2021/07/15 02:35:38;;;;;;;23.25;12.65;;;;;;;19.30;91.99;101891.91;5071652;28;20279;-72
2021/07/15 02:38:08;;;;;;;20.55;12.13;;;;;;;19.34;91.91;101933.81;5071761;28;20083;-72
2021/07/15 02:40:33;;;;;;;20.10;12.77;;;;;;;19.42;92.28;101989.72;5070622;28;20040;-72
2021/07/15 02:42:59;;;;;;;22.20;14.00;;;;;;;19.21;92.53;101879.53;5070496;28;20043;-72
2021/07/15 02:45:25;;;;;;;18.15;11.80;;;;;;;19.31;92.61;101919.81;5071338;28;20460;-72
2021/07/15 02:47:52;;;;;;;22.43;12.87;;;;;;;19.38;92.37;102001.97;5053518;28;20054;-72
2021/07/15 02:50:20;;;;;;;22.77;13.25;;;;;;;19.34;92.33;101966.31;5071511;28;20028;-72
2021/07/15 02:52:48;;;;;;;23.88;13.95;;;;;;;19.31;91.97;101982.91;5053815;28;20036;-72
2021/07/15 02:55:14;;;;;;;19.48;11.77;;;;;;;19.31;92.44;101952.31;5071113;28;20047;-72
2021/07/15 02:57:57;;;;;;;22.83;12.55;;;;;;;19.31;92.03;101855.66;5071294;28;20036;-72
2021/07/15 03:00:25;;;;;;;19.60;12.85;;;;;;;19.24;92.35;101965.75;5071487;28;20036;-72
2021/07/15 03:03:04;;;;;;;22.27;12.32;;;;;;;19.31;92.47;101888.16;5053626;28;20037;-72
2021/07/15 03:05:36;;;;;;;21.15;11.52;;;;;;;19.30;92.58;101945.22;5071066;28;20028;-72
2021/07/15 03:08:07;;;;;;;17.10;12.00;;;;;;;19.29;92.81;101978.72;5070926;28;20044;-72
2021/07/15 03:10:34;;;;;;;22.65;13.73;;;;;;;19.30;92.50;101994.78;5070150;28;20044;-72
2021/07/15 03:13:08;;;;;;;18.55;11.68;;;;;;;19.33;92.62;101937.53;5071040;28;20031;-72
2021/07/15 03:15:35;;;;;;;26.13;11.52;;;;;;;19.29;92.56;101868.59;5070766;28;20047;-73
2021/07/15 03:18:02;;;;;;;33.33;13.63;;;;;;;19.11;93.42;101946.66;5069642;28;20032;-72
2021/07/15 03:20:34;;;;;;;24.23;12.43;;;;;;;19.07;93.73;101956.19;5053076;28;20036;-72
2021/07/15 03:23:03;;;;;;;29.95;14.00;;;;;;;19.10;93.64;102004.53;5069828;28;20548;-72
2021/07/15 03:25:28;;;;;;;33.80;13.85;;;;;;;19.05;93.39;102091.69;5069507;28;20036;-72
2021/07/15 03:27:56;;;;;;;31.48;14.73;;;;;;;19.08;92.94;102017.41;5069622;28;20047;-72
2021/07/15 03:30:25;;;;;;;36.28;13.93;;;;;;;19.01;93.24;102092.25;5070869;28;20396;-72
2021/07/15 03:32:51;;;;;;;27.95;13.55;;;;;;;19.06;92.68;102092.53;5070533;28;20067;-72
2021/07/15 03:35:17;;;;;;;31.40;16.42;;;;;;;19.01;92.47;102092.25;5069552;28;20052;-72
2021/07/15 03:37:46;;;;;;;33.72;16.17;;;;;;;18.89;93.34;102005.28;5070485;28;20037;-72
2021/07/15 03:40:15;;;;;;;26.88;14.18;;;;;;;18.94;92.91;101995.59;5069672;28;20032;-72
2021/07/15 03:42:41;;;;;;;24.98;14.98;;;;;;;18.78;93.18;101898.41;5069717;28;20047;-73
2021/07/15 03:45:08;;;;;;;;;;;;;;;18.82;93.43;101856.38;5070765;28;20031;-72
2021/07/15 03:47:35;;;;;;;22.70;14.02;;;;;;;18.74;92.71;101938.47;5068935;28;19927;-72
2021/07/15 03:50:01;;;;;;;27.98;15.57;;;;;;;18.53;92.96;101863.50;5070402;28;20044;-72
2021/07/15 03:52:27;;;;;;;25.75;15.25;;;;;;;18.51;93.05;102006.16;5069093;28;20032;-72
2021/07/15 03:54:54;;;;;;;30.60;16.35;;;;;;;18.59;92.53;102012.50;5069014;28;20137;-72
2021/07/15 03:57:20;;;;;;;34.38;15.15;;;;;;;18.58;92.09;102105.50;5069798;28;20037;-72
2021/07/15 03:59:48;;;;;;;29.50;14.98;;;;;;;18.48;92.35;102116.56;5052560;28;20113;-72
2021/07/15 04:02:18;;;;;;;27.38;14.15;;;;;;;18.53;92.56;102049.25;5068743;28;20040;-72
2021/07/15 04:04:48;;;;;;;27.15;13.77;;;;;;;18.48;92.33;102160.69;5068779;28;20037;-72
2021/07/15 04:07:16;;;;;;;29.00;14.77;;;;;;;18.42;93.27;102226.28;5069463;28;20040;-72
2021/07/15 04:09:42;;;;;;;28.95;15.27;;;;;;;18.49;92.73;102119.06;5069809;28;20093;-72
2021/07/15 04:12:09;;;;;;;22.77;13.85;;;;;;;18.61;92.64;102253.88;5068734;28;20429;-72
2021/07/15 04:14:59;;;;;;;27.98;14.25;;;;;;;18.61;92.37;102270.13;5068500;28;20088;-72
2021/07/15 04:17:29;;;;;;;41.05;15.98;;;;;;;18.61;92.60;102240.38;5069410;28;20055;-72
2021/07/15 04:19:59;;;;;;;35.90;16.00;;;;;;;18.60;92.64;102282.81;5068798;28;20046;-72
2021/07/15 04:22:26;;;;;;;34.70;15.73;;;;;;;18.72;92.88;102147.97;5068435;28;20066;-72
2021/07/15 04:24:53;;;;;;;29.88;14.57;;;;;;;18.82;92.67;107334.97;5051841;28;20571;-72
2021/07/15 04:27:18;;;;;;;28.83;14.25;;;;;;;18.86;92.17;103091.63;5050405;28;20056;-72
2021/07/15 04:29:45;;;;;;;30.90;14.67;;;;;;;18.92;91.73;102890.72;5066706;28;20068;-72
2021/07/15 04:32:26;;;;;;;29.20;14.35;;;;;;;19.03;91.96;102361.69;5067780;28;20028;-72
2021/07/15 04:34:53;;;;;;;25.05;13.52;;;;;;;19.09;91.55;102361.00;5066522;28;20430;-72
2021/07/15 04:37:20;;;;;;;25.10;14.57;;;;;;;19.11;91.74;102203.81;5049896;28;20032;-72
2021/07/15 04:39:46;;;;;;;26.23;14.32;;;;;;;19.09;92.11;102465.72;5050076;28;20441;-72
2021/07/15 04:42:13;;;;;;;;;;;;;;;19.00;91.90;102794.28;5066851;28;20071;-72
2021/07/15 04:44:40;;;;;;;26.60;15.55;;;;;;;19.01;91.48;102545.09;5068109;28;19916;-72
2021/07/15 04:47:07;;;;;;;25.83;15.15;;;;;;;18.98;91.74;102262.09;5068009;28;20093;-72
2021/07/15 04:49:33;;;;;;;23.13;14.57;;;;;;;19.08;92.10;102110.28;5068419;28;20044;-72
2021/07/15 04:51:59;;;;;;;26.45;14.50;;;;;;;19.20;91.88;102275.81;5069061;28;20106;-72
2021/07/15 04:54:26;;;;;;;30.08;16.92;;;;;;;19.20;91.86;102121.50;5067899;28;20028;-72
2021/07/15 04:56:51;;;;;;;26.77;16.05;;;;;;;19.34;91.63;102073.78;5067918;28;20036;-72
2021/07/15 04:59:17;;;;;;;28.98;16.33;;;;;;;19.46;91.86;101995.59;5067908;28;20050;-72
2021/07/15 05:01:43;;;;;;;32.10;16.05;;;;;;;19.33;92.05;102017.94;5068996;28;20031;-73
2021/07/15 05:04:08;;;;;;;30.05;16.48;;;;;;;19.38;91.98;102235.66;5069036;28;20052;-72
2021/07/15 05:06:34;;;;;;;34.10;17.53;;;;;;;19.38;91.36;102766.50;5067835;28;20066;-72
2021/07/15 05:08:59;;;;;;;34.33;17.10;;;;;;;19.41;91.60;102283.25;5067936;28;20416;-72
2021/07/15 05:11:25;;;;;;;30.80;15.57;;;;;;;19.45;91.59;102077.88;5068024;28;20127;-72
2021/07/15 05:13:50;;;;;;;35.50;18.43;;;;;;;19.36;91.58;102018.41;5051036;28;20125;-72
2021/07/15 05:16:16;;;;;;;35.92;19.92;;;;;;;19.32;91.76;101983.78;5068636;28;20457;-72
2021/07/15 05:18:42;;;;;;;33.00;17.40;;;;;;;19.36;92.24;101909.25;5068723;28;20028;-72
2021/07/15 05:21:08;;;;;;;40.35;19.08;;;;;;;19.39;91.87;101955.75;5051327;28;20044;-73
2021/07/15 05:23:34;;;;;;;38.47;19.35;;;;;;;19.42;92.04;101959.94;5067680;28;20047;-73
2021/07/15 05:26:00;;;;;;;34.13;20.33;;;;;;;19.46;91.94;101922.50;5050823;28;20012;-72
2021/07/15 05:28:26;;;;;;;42.13;20.80;;;;;;;19.55;91.69;101913.19;5050981;28;20052;-72
2021/07/15 05:30:52;;;;;;;28.65;17.23;;;;;;;19.49;92.15;101895.00;5067853;28;20287;-72
2021/07/15 05:33:17;;;;;;;32.17;21.00;;;;;;;19.47;92.42;102024.34;5067214;28;20526;-72
2021/07/15 05:35:43;;;;;;;43.47;21.10;;;;;;;19.42;92.41;101915.78;5065844;28;20032;-72
2021/07/15 05:38:09;;;;;;;40.83;21.38;;;;;;;19.39;92.85;101879.09;5066193;28;20090;-73
2021/07/15 05:40:35;;;;;;;39.05;19.58;;;;;;;19.45;93.11;101885.59;5048694;28;20031;-72
2021/07/15 05:43:00;;;;;;;29.75;18.95;;;;;;;19.65;92.90;101880.38;5070303;28;20066;-73
2021/07/15 05:45:25;;;;;;;32.80;18.70;;;;;;;19.86;92.74;101890.38;5070958;28;20039;-73
2021/07/15 05:47:51;;;;;;;26.80;16.40;;;;;;;19.95;91.61;101829.56;5069970;28;20063;-72
2021/07/15 05:50:16;;;;;;;32.50;18.77;;;;;;;20.07;91.20;101830.69;5070783;28;20362;-73
2021/07/15 05:52:42;;;;;;;33.70;19.03;;;;;;;20.19;90.56;101845.34;5054904;28;20036;-73
2021/07/15 05:55:07;;;;;;;30.83;18.57;;;;;;;20.22;89.91;101804.28;5072347;28;20067;-73
2021/07/15 05:57:33;;;;;;;35.83;19.40;;;;;;;20.28;89.73;101867.72;5071255;28;20123;-72
2021/07/15 06:00:05;;;;;;;33.10;17.83;;;;;;;20.39;90.39;101803.94;5071421;28;20365;-73
2021/07/15 06:02:30;;;;;;;28.75;17.88;;;;;;;20.59;88.68;101804.06;5072500;28;20048;-73
2021/07/15 06:04:56;;;;;;;36.83;18.70;;;;;;;20.50;88.55;101788.97;5071082;28;20036;-73
2021/07/15 06:07:21;;;;;;;36.27;18.77;;;;;;;20.61;88.36;101821.78;5070973;28;20039;-73
2021/07/15 06:09:46;;;;;;;29.47;18.23;;;;;;;20.61;88.39;101766.72;5054473;28;20050;-73
2021/07/15 06:12:12;;;;;;;31.70;18.97;;;;;;;20.79;87.95;102368.59;5072012;28;20032;-73
2021/07/15 06:14:37;;;;;;;32.90;20.07;;;;;;;20.86;87.37;102079.94;5070634;28;20051;-73
2021/07/15 06:17:03;;;;;;;28.97;18.63;;;;;;;21.06;86.65;101944.28;5070881;28;20056;-73
2021/07/15 06:19:29;;;;;;;25.33;14.88;;;;;;;21.25;85.89;101911.97;5070962;28;20066;-73
2021/07/15 06:21:54;;;;;;;25.75;16.73;;;;;;;21.32;84.89;101890.28;5072033;28;20438;-73
2021/07/15 06:24:20;;;;;;;32.43;19.23;;;;;;;21.16;84.85;101891.50;5070909;28;20101;-73
2021/07/15 06:26:47;;;;;;;32.50;19.37;;;;;;;21.07;85.79;101875.41;5071581;28;20040;-73
2021/07/15 06:29:13;;;;;;;34.22;17.55;;;;;;;20.73;87.67;101845.63;5071981;28;20044;-73
2021/07/15 06:31:38;;;;;;;42.23;20.90;;;;;;;20.70;87.30;101849.59;5071673;28;20055;-73
2021/07/15 06:34:04;;;;;;;38.30;19.23;;;;;;;20.60;88.21;101870.81;5070721;28;20032;-73
2021/07/15 06:36:32;;;;;;;28.50;19.10;;;;;;;20.52;89.57;102004.72;5070241;28;20028;-73
2021/07/15 06:38:58;;;;;;;39.58;21.20;;;;;;;20.52;89.31;101914.38;5071662;28;20469;-73
2021/07/15 06:41:23;;;;;;;41.63;20.63;;;;;;;20.48;89.59;101858.84;5070193;28;20622;-73
2021/07/15 06:43:49;;;;;;;42.05;21.38;;;;;;;20.47;89.38;101879.72;5071644;28;20074;-73
2021/07/15 06:46:14;;;;;;;47.00;21.30;;;;;;;20.49;89.41;101836.97;5070105;28;20111;-73
2021/07/15 06:48:40;;;;;;;45.80;22.03;;;;;;;20.55;89.54;101884.13;5070448;28;20036;-73
2021/07/15 06:51:05;;;;;;;40.60;21.87;;;;;;;20.55;90.52;101892.25;5071209;28;20173;-73
2021/07/15 06:53:30;;;;;;;39.65;23.05;;;;;;;20.39;88.86;101852.75;5070242;28;20032;-73
2021/07/15 06:55:58;;;;;;;36.53;21.20;;;;;;;20.56;89.59;101957.22;5070110;28;20468;-73
2021/07/15 06:58:23;;;;;;;43.70;23.63;;;;;;;20.40;89.44;101827.31;5070222;28;20035;-73
2021/07/15 07:00:48;;;;;;;38.77;23.10;;;;;;;20.52;88.85;101778.75;5070158;28;20365;-73
2021/07/15 07:03:14;;;;;;;41.47;22.97;;;;;;;20.35;89.25;101797.25;5070180;28;20027;-73
2021/07/15 07:05:40;;;;;;;40.22;22.88;;;;;;;20.50;89.50;101799.81;5052894;28;20064;-73
2021/07/15 07:08:07;;;;;;;37.35;23.17;;;;;;;20.59;88.64;101821.16;5069608;28;20040;-73
2021/07/15 07:10:32;;;;;;;42.10;21.52;;;;;;;20.85;87.87;101787.00;5071096;28;20028;-73
2021/07/15 07:12:58;;;;;;;41.13;20.87;;;;;;;20.94;86.51;101753.19;5071128;28;20037;-73
2021/07/15 07:15:23;;;;;;;34.00;22.40;;;;;;;20.61;88.74;101716.00;5069701;28;20051;-73
2021/07/15 07:17:49;;;;;;;31.70;22.00;;;;;;;20.65;87.85;101733.53;5069812;28;20115;-73
2021/07/15 07:20:15;;;;;;;28.80;18.95;;;;;;;21.04;86.60;101758.22;5070754;28;20032;-73
2021/07/15 07:22:44;;;;;;;;;;;;;;;21.25;84.07;101770.75;5070289;28;20048;-73
2021/07/15 07:25:10;;;;;;;28.40;20.08;;;;;;;21.13;85.10;101756.16;5070867;28;19912;-73
2021/07/15 07:27:36;;;;;;;33.47;17.80;;;;;;;20.85;87.04;101738.97;5070495;28;20502;-73
2021/07/15 07:30:04;;;;;;;33.65;21.17;;;;;;;21.20;84.88;101812.13;5069765;28;20143;-73
2021/07/15 07:32:29;;;;;;;30.90;19.42;;;;;;;21.53;82.40;101783.34;5069590;28;20044;-73
2021/07/15 07:34:54;;;;;;;34.90;21.10;;;;;;;21.35;83.44;101738.56;5069228;28;20044;-72
2021/07/15 07:37:20;;;;;;;29.43;18.07;;;;;;;21.74;81.40;101719.75;5070351;28;20127;-73
2021/07/15 07:39:45;;;;;;;32.10;17.93;;;;;;;21.89;81.13;101706.72;5052899;28;20358;-73
2021/07/15 07:42:11;;;;;;;34.40;19.30;;;;;;;21.74;80.88;101690.69;5069825;28;20032;-73
2021/07/15 07:44:37;;;;;;;26.83;18.85;;;;;;;21.45;82.39;101679.28;5070433;28;20039;-73
2021/07/15 07:47:02;;;;;;;38.23;20.63;;;;;;;21.17;81.79;101655.06;5070043;28;20028;-74
2021/07/15 07:49:27;;;;;;;29.88;19.55;;;;;;;21.32;82.95;101679.25;5070622;28;20533;-73
2021/07/15 07:51:53;;;;;;;22.90;15.77;;;;;;;21.67;82.80;101688.00;5070154;28;20036;-73
2021/07/15 07:54:18;;;;;;;26.05;18.35;;;;;;;21.91;81.41;101691.91;5052551;28;20459;-73
2021/07/15 07:56:44;;;;;;;24.47;15.80;;;;;;;22.11;79.58;101693.69;5070071;28;20530;-74
2021/07/15 07:59:10;;;;;;;20.33;15.30;;;;;;;22.22;78.08;101731.13;5052503;28;20029;-73
2021/07/15 08:01:35;;;;;;;30.30;18.50;;;;;;;22.32;76.23;101690.69;5070106;28;20473;-73
2021/07/15 08:04:02;;;;;;;30.63;17.00;;;;;;;22.29;77.38;101658.50;5069083;28;20037;-73
2021/07/15 08:06:34;;;;;;;23.67;16.02;;;;;;;23.07;76.08;101703.59;5069762;28;20029;-73
2021/07/15 08:09:00;;;;;;;23.25;15.25;;;;;;;23.18;72.68;101666.63;5068970;28;20123;-73
2021/07/15 08:11:28;;;;;;;21.20;12.57;;;;;;;23.58;71.32;101667.06;5068836;28;20063;-73
2021/07/15 08:13:53;;;;;;;23.00;13.90;;;;;;;23.64;71.64;101668.03;5069660;28;20445;-73
2021/07/15 08:16:18;;;;;;;17.50;14.33;;;;;;;23.57;69.88;101638.13;5069630;28;20087;-73
2021/07/15 08:18:43;;;;;;;21.30;16.17;;;;;;;23.36;71.87;101624.94;5068470;28;20457;-74
2021/07/15 08:21:09;;;;;;;25.07;16.77;;;;;;;23.42;72.47;101604.97;5052332;28;20480;-73
2021/07/15 08:23:34;;;;;;;21.77;14.00;;;;;;;23.75;72.02;101618.22;5069592;28;20458;-73
2021/07/15 08:25:59;;;;;;;19.00;13.63;;;;;;;23.98;71.24;101624.88;5068221;28;20056;-74
2021/07/15 08:28:25;;;;;;;21.17;14.73;;;;;;;23.97;71.59;101604.91;5068803;28;20048;-74
2021/07/15 08:30:50;;;;;;;19.17;14.70;;;;;;;23.82;71.85;101595.50;5051960;28;20051;-73
2021/07/15 08:33:15;;;;;;;20.87;15.90;;;;;;;24.22;71.17;101617.59;5068249;28;20032;-73
2021/07/15 08:35:41;;;;;;;25.57;16.57;;;;;;;23.83;71.17;101587.06;5069451;28;20441;-73
2021/07/15 08:38:06;;;;;;;24.40;17.47;;;;;;;23.90;69.43;101585.09;5069352;28;20051;-73
2021/07/15 08:40:32;;;;;;;26.85;16.55;;;;;;;23.65;72.55;101581.63;5068986;28;20040;-73
2021/07/15 08:42:57;;;;;;;19.57;14.27;;;;;;;23.94;70.56;101599.13;5051384;28;20032;-74
2021/07/15 08:45:23;;;;;;;24.08;14.40;;;;;;;24.49;69.43;101617.22;5068355;28;20444;-73
2021/07/15 08:47:50;;;;;;;26.33;16.15;;;;;;;24.71;67.55;101629.25;5069168;28;20036;-73
2021/07/15 08:50:17;;;;;;;22.00;16.23;;;;;;;25.78;64.82;101600.75;5068188;28;20033;-74
2021/07/15 08:52:43;;;;;;;21.15;14.45;;;;;;;26.89;61.02;101660.53;5069311;28;20032;-74
2021/07/15 08:57:36;;;;;;;21.30;13.63;;;;;;;26.16;62.48;101620.38;5068168;28;20135;-74
2021/07/15 09:00:06;;;;;;;17.63;14.48;;;;;;;26.74;60.02;101619.22;5069272;28;20036;-74
2021/07/15 09:02:32;;;;;;;19.85;14.60;;;;;;;27.56;56.97;101625.91;5068169;28;20048;-74
2021/07/15 09:04:57;;;;;;;18.85;16.73;;;;;;;27.11;59.32;101583.03;5069103;28;20460;-74
2021/07/15 09:07:23;;;;;;;23.67;16.50;;;;;;;26.76;57.53;101558.69;5068998;28;20032;-74
2021/07/15 09:09:48;;;;;;;20.67;15.05;;;;;;;26.41;60.45;101549.66;5069000;28;20461;-74
2021/07/15 09:12:15;;;;;;;19.07;14.57;;;;;;;27.64;57.00;101617.22;5068090;28;20584;-74
2021/07/15 09:14:49;;;;;;;18.58;13.77;;;;;;;27.76;54.72;101601.44;5068731;28;20298;-74
2021/07/15 09:17:16;;;;;;;24.58;13.82;;;;;;;27.76;56.09;101604.19;5066735;28;20043;-74
2021/07/15 09:19:42;;;;;;;19.95;14.45;;;;;;;27.28;56.17;101578.38;5067830;28;20093;-74
2021/07/15 09:22:13;;;;;;;22.20;15.02;;;;;;;26.37;58.35;101531.25;5068952;28;20438;-73
2021/07/15 09:24:41;;;;;;;17.42;13.20;;;;;;;26.10;61.06;101524.50;5068674;28;20150;-74
2021/07/15 09:27:15;;;;;;;22.38;15.13;;;;;;;25.78;60.99;101502.31;5068820;28;20498;-74
2021/07/15 09:29:42;;;;;;;21.48;16.17;;;;;;;26.98;58.51;101556.84;5067871;28;20093;-74
2021/07/15 09:32:07;;;;;;;23.15;14.73;;;;;;;26.60;60.65;101536.56;5068867;28;20037;-74
2021/07/15 09:34:34;;;;;;;21.65;13.68;;;;;;;26.58;58.20;101524.22;5068524;28;20035;-74
2021/07/15 09:37:10;;;;;;;19.60;14.45;;;;;;;26.90;58.80;101541.66;5068471;28;20047;-74
2021/07/15 09:39:44;;;;;;;17.58;13.88;;;;;;;27.53;55.34;101546.84;5051126;28;20119;-74
2021/07/15 09:42:18;;;;;;;20.20;14.35;;;;;;;28.12;54.41;101581.78;5050154;28;20092;-74
2021/07/15 09:44:50;;;;;;;17.65;13.90;;;;;;;28.51;53.26;102648.25;5050631;28;20051;-73
2021/07/15 09:47:33;;;;;;;15.30;12.75;;;;;;;28.27;53.45;102797.56;5067540;28;20465;-74
2021/07/15 09:50:00;;;;;;;14.63;12.38;;;;;;;28.29;53.40;102287.38;5068713;28;20048;-74
2021/07/15 09:52:25;;;;;;;15.18;10.82;;;;;;;28.85;52.21;102178.50;5067713;28;20115;-74
2021/07/15 09:54:51;;;;;;;22.27;15.57;;;;;;;27.76;54.18;102065.09;5067511;28;20418;-74
2021/07/15 09:57:27;;;;;;;16.57;11.80;;;;;;;28.66;53.48;102091.91;5067466;28;20604;-74
2021/07/15 09:59:55;;;;;;;18.92;13.18;;;;;;;29.20;52.21;102203.00;5068661;28;20377;-74
2021/07/15 10:02:29;;;;;;;13.68;11.48;;;;;;;29.65;50.42;102187.34;5067540;28;20521;-74
2021/07/15 10:04:54;;;;;;;15.93;11.45;;;;;;;29.61;50.20;102111.91;5067316;28;20136;-74
2021/07/15 10:07:26;;;;;;;12.73;9.75;;;;;;;30.36;48.73;102106.66;5050626;28;20505;-74
2021/07/15 10:10:20;;;;;;;14.45;11.75;;;;;;;30.16;49.49;102011.72;5067486;28;20358;-74
2021/07/15 10:12:45;;;;;;;14.90;12.50;;;;;;;29.80;50.19;101886.72;5068637;28;20029;-75
2021/07/15 10:15:13;;;;;;;14.00;11.07;;;;;;;29.67;50.19;101871.50;5067223;28;20028;-75
2021/07/15 10:17:44;;;;;;;15.10;10.68;;;;;;;30.10;48.75;101842.03;5067292;28;20131;-75
2021/07/15 10:20:14;;;;;;;16.02;10.55;;;;;;;30.71;47.01;101798.19;5068967;28;20056;-75
2021/07/15 10:22:40;;;;;;;17.67;12.63;;;;;;;30.11;49.15;101760.25;5050711;28;20032;-75
2021/07/15 10:25:08;;;;;;;16.40;11.10;;;;;;;28.84;50.49;101679.41;5067273;28;20032;-75
2021/07/15 10:27:37;;;;;;;21.30;12.00;;;;;;;29.66;49.58;101743.22;5069202;28;20028;-74
2021/07/15 10:30:03;;;;;;;15.00;10.18;;;;;;;30.19;47.88;101785.38;5072255;28;20037;-75
2021/07/15 10:32:29;;;;;;;;;;;;;;;29.09;49.65;101680.75;5072174;28;20037;-75
2021/07/15 10:34:55;;;;;;;12.00;10.15;;;;;;;28.92;51.08;101678.94;5070933;28;19913;-75
2021/07/15 10:37:20;;;;;;;14.02;10.65;;;;;;;29.10;50.54;101679.63;5053983;28;20127;-74
2021/07/15 10:39:48;;;;;;;10.85;9.48;;;;;;;29.91;48.97;101717.81;5054214;28;20032;-73
2021/07/15 10:42:14;;;;;;;19.15;10.98;;;;;;;29.94;48.75;101686.16;5053324;28;20036;-74
2021/07/15 10:44:40;;;;;;;11.68;10.02;;;;;;;30.27;47.49;101691.25;5070576;28;20393;-75
2021/07/15 10:47:07;;;;;;;14.82;9.75;;;;;;;30.88;46.99;101717.22;5053632;28;20093;-75
2021/07/15 10:49:35;;;;;;;15.35;11.30;;;;;;;30.89;46.94;101868.56;5054258;28;20120;-75
2021/07/15 10:52:01;;;;;;;12.77;11.43;;;;;;;30.41;49.59;101715.50;5070757;28;20106;-75
2021/07/15 10:54:27;;;;;;;;;;;;;;;30.66;47.25;101652.16;5071981;28;20033;-75
2021/07/15 10:56:54;;;;;;;13.93;11.93;;;;;;;29.49;51.35;101583.06;5070209;28;19962;-74
2021/07/15 10:59:31;;;;;;;14.63;11.88;;;;;;;28.53;51.74;101538.25;5071610;28;20449;-75
2021/07/15 11:01:59;;;;;;;16.02;11.60;;;;;;;29.10;52.17;101597.16;5053630;28;20037;-75
2021/07/15 11:04:35;;;;;;;15.38;10.90;;;;;;;28.93;54.15;101569.81;5070241;28;20032;-73
2021/07/15 11:07:16;;;;;;;17.65;12.68;;;;;;;29.07;52.10;101578.44;5069796;28;20041;-74
2021/07/15 11:09:41;;;;;;;15.35;11.90;;;;;;;30.07;48.81;101570.00;5053593;28;20041;-74
2021/07/15 11:12:32;;;;;;;18.80;11.80;;;;;;;29.74;50.04;101883.13;5053485;28;20043;-75
2021/07/15 11:15:07;;;;;;;16.85;11.40;;;;;;;30.53;48.27;101776.66;5070024;28;20493;-75
2021/07/15 11:17:41;;;;;;;14.40;12.67;;;;;;;30.38;49.29;101716.88;5069858;28;20033;-75
2021/07/15 11:20:14;;;;;;;13.60;12.20;;;;;;;30.95;47.62;101737.06;5070123;28;20036;-75
2021/07/15 11:22:45;;;;;;;19.27;12.95;;;;;;;31.08;49.31;101714.44;5069831;28;20032;-75
2021/07/15 11:25:12;;;;;;;18.17;12.50;;;;;;;30.39;49.15;101632.28;5069971;28;20048;-75
2021/07/15 11:27:41;;;;;;;24.13;14.40;;;;;;;29.82;49.83;101590.88;5069557;28;20035;-75
2021/07/15 11:30:09;;;;;;;18.00;14.00;;;;;;;29.12;52.49;101554.56;5069999;28;20647;-75
2021/07/15 11:32:35;;;;;;;16.98;11.73;;;;;;;29.41;51.19;101571.47;5069659;28;20040;-75